Time;durP1;ratioP1;P1;durP2;ratioP2;P2;SDS_P1;SDS_P2;PMS_P1;PMS_P2;Temp;Humidity;BMP_temperature;BMP_pressure;BME280_temperature;BME280_humidity;BME280_pressure;Samples;Min_cycle;Max_cycle;Signal;HPM_P1;HPM_P2
2022/03/27 00:01:43;;;;;;;;;;;;;;;13.32;46.03;102020.63;6112404;23;6921;-76
2022/03/27 00:04:09;;;;;;;;;;;;;;;13.27;46.79;102028.03;6111708;23;6938;-76
2022/03/27 00:06:34;;;;;;;;;;;;;;;13.23;46.85;102030.34;6111387;23;6787;-76
2022/03/27 00:09:00;;;;;;;;;;;;;;;13.20;47.33;102031.94;6111146;23;6771;-76
2022/03/27 00:11:27;;;;;;;;;;;;;;;13.15;47.23;102028.19;6109030;23;6932;-75
2022/03/27 00:14:01;;;;;;;;;;;;;;;13.12;46.56;102025.41;6113124;23;6786;-75
2022/03/27 00:16:28;;;;;;;;;;;;;;;13.06;47.13;102030.19;6111270;23;6952;-76
2022/03/27 00:18:55;;;;;;;;;;;;;;;12.98;47.25;102026.22;6111266;23;8318;-75
2022/03/27 00:21:22;;;;;;;;;;;;;;;12.92;47.00;102027.59;6113884;23;6786;-75
2022/03/27 00:23:53;;;;;;;;;;;;;;;12.87;47.20;102026.41;6115067;23;6954;-75
2022/03/27 00:26:20;;;;;;;;;;;;;;;12.86;47.70;102021.16;6115235;23;6786;-75
2022/03/27 00:28:48;;;;;;;;;;;;;;;12.87;47.53;102023.84;6089627;23;7250;-75
2022/03/27 00:31:14;;;;;;;;;;;;;;;12.90;48.29;102029.19;6113450;23;6791;-75
2022/03/27 00:33:43;;;;;;;;;;;;;;;12.92;48.93;102024.13;6114445;23;6794;-75
2022/03/27 00:36:13;;;;;;;;;;;;;;;12.96;48.27;102022.66;6114874;23;6869;-75
2022/03/27 00:38:40;;;;;;;;;;;;;;;12.98;49.17;102019.38;6090387;23;6957;-75
2022/03/27 00:41:06;;;;;;;;;;;;;;;13.02;48.32;102020.47;6091277;23;6790;-76
2022/03/27 00:43:33;;;;;;;;;;;;;;;13.02;48.54;102016.22;6114086;23;7030;-76
2022/03/27 00:45:59;;;;;;;;;;;;;;;13.02;48.04;102015.31;6114184;23;7064;-76
2022/03/27 00:48:25;;;;;;;;;;;;;;;13.01;48.95;102013.53;6114736;23;6786;-76
2022/03/27 00:50:53;;;;;;;;;;;;;;;13.01;48.92;102013.53;6114232;23;6994;-76
2022/03/27 00:53:21;;;;;;;;;;;;;;;12.99;48.87;102009.97;6112296;23;6851;-76
2022/03/27 00:55:51;;;;;;;;;;;;;;;12.97;48.99;102016.72;6115663;23;6938;-76
2022/03/27 00:58:17;;;;;;;;;;;;;;;12.95;48.81;102010.59;6114786;23;6787;-76
2022/03/27 01:01:03;;;;;;;;;;;;;;;12.93;49.26;102013.06;6111491;23;7963;-76
2022/03/27 01:03:31;;;;;;;;;;;;;;;12.89;49.53;102014.53;6117955;23;6834;-76
2022/03/27 01:05:57;;;;;;;;;;;;;;;12.88;48.70;102012.75;6114091;23;6829;-76
2022/03/27 01:11:20;;;;;;;;;;;;;;;12.82;49.58;102007.19;6118145;23;7093;-76
2022/03/27 01:14:04;;;;;;;;;;;;;;;12.81;49.56;102005.44;6114746;23;6778;-76
2022/03/27 01:16:47;;;;;;;;;;;;;;;12.80;50.20;102006.22;6115928;23;7022;-76
2022/03/27 01:19:15;;;;;;;;;;;;;;;12.78;50.22;102008.69;6115866;23;6775;-76
2022/03/27 01:21:45;;;;;;;;;;;;;;;12.76;50.26;102002.56;6112911;23;6782;-76
2022/03/27 01:24:14;;;;;;;;;;;;;;;12.75;50.17;102007.63;6088546;23;6819;-76
2022/03/27 01:26:40;;;;;;;;;;;;;;;12.73;50.49;102001.47;6115154;23;6978;-76
2022/03/27 01:29:07;;;;;;;;;;;;;;;12.69;50.24;102000.38;6115139;23;6774;-76
2022/03/27 01:31:33;;;;;;;;;;;;;;;12.67;50.48;101998.50;6112020;23;6783;-76
2022/03/27 01:33:59;;;;;;;;;;;;;;;12.62;50.37;101998.22;6114483;23;7832;-74
2022/03/27 01:36:35;;;;;;;;;;;;;;;12.59;50.66;101996.31;6113498;23;6817;-74
2022/03/27 01:39:08;;;;;;;;;;;;;;;12.54;50.28;101989.09;6087784;23;7194;-74
2022/03/27 01:41:35;;;;;;;;;;;;;;;12.49;51.40;101988.78;6136154;23;6779;-75
2022/03/27 01:44:01;;;;;;;;;;;;;;;12.48;51.48;101990.47;6114503;23;7015;-75
2022/03/27 01:46:35;;;;;;;;;;;;;;;12.49;51.22;101991.38;6087793;23;8407;-75
2022/03/27 01:49:04;;;;;;;;;;;;;;;12.46;51.87;101986.91;6113635;23;6969;-74
2022/03/27 01:51:31;;;;;;;;;;;;;;;12.46;51.26;101981.75;6114802;23;6855;-75
2022/03/27 01:53:58;;;;;;;;;;;;;;;12.45;51.24;101984.22;6112699;23;6790;-75
2022/03/27 01:56:24;;;;;;;;;;;;;;;12.44;51.47;101987.59;6113246;23;6822;-75
2022/03/27 01:58:52;;;;;;;;;;;;;;;12.42;51.73;101990.09;6112406;23;6971;-75
2022/03/27 02:01:19;;;;;;;;;;;;;;;12.42;51.72;101989.19;6113852;23;6790;-75
2022/03/27 02:03:45;;;;;;;;;;;;;;;12.40;52.10;101980.47;6117369;23;6775;-75
2022/03/27 02:06:12;;;;;;;;;;;;;;;12.38;51.86;101977.78;6118558;23;6861;-75
2022/03/27 02:08:37;;;;;;;;;;;;;;;12.34;52.14;101988.69;6093437;23;8499;-75
2022/03/27 02:11:05;;;;;;;;;;;;;;;12.30;51.39;101989.25;6117316;23;6775;-75
2022/03/27 02:13:30;;;;;;;;;;;;;;;12.25;51.91;101991.50;6116020;23;6949;-75
2022/03/27 02:15:58;;;;;;;;;;;;;;;12.20;51.58;101986.06;6117226;23;7008;-75
2022/03/27 02:18:28;;;;;;;;;;;;;;;12.14;51.90;101983.09;6116229;23;6786;-75
2022/03/27 02:20:55;;;;;;;;;;;;;;;12.09;51.52;101979.31;6117778;23;6874;-75
2022/03/27 02:23:23;;;;;;;;;;;;;;;12.03;51.87;101982.38;6117500;23;6946;-75
2022/03/27 02:25:50;;;;;;;;;;;;;;;11.99;52.00;101979.47;6093144;23;7267;-75
2022/03/27 02:28:15;;;;;;;;;;;;;;;11.96;52.37;101980.13;6116073;23;6782;-75
2022/03/27 02:30:42;;;;;;;;;;;;;;;11.94;52.43;101980.06;6117867;23;6783;-75
2022/03/27 02:33:09;;;;;;;;;;;;;;;11.93;53.06;101977.38;6139253;23;6778;-75
2022/03/27 02:35:36;;;;;;;;;;;;;;;11.91;52.96;101981.53;6119088;23;6791;-75
2022/03/27 02:38:06;;;;;;;;;;;;;;;11.90;52.91;101974.59;6117546;23;6779;-75
2022/03/27 02:40:34;;;;;;;;;;;;;;;11.89;52.79;101970.25;6116639;23;6945;-75
2022/03/27 02:43:01;;;;;;;;;;;;;;;11.86;52.69;101972.59;6116994;23;7190;-75
2022/03/27 02:45:28;;;;;;;;;;;;;;;11.81;53.36;101973.19;6115982;23;6999;-75
2022/03/27 02:47:54;;;;;;;;;;;;;;;11.79;53.46;101977.34;6117569;23;7144;-75
2022/03/27 02:50:20;;;;;;;;;;;;;;;11.78;53.44;101977.22;6117165;23;6862;-75
2022/03/27 02:52:46;;;;;;;;;;;;;;;11.76;53.92;101974.53;6117493;23;7459;-75
2022/03/27 02:55:12;;;;;;;;;;;;;;;11.75;54.18;101972.75;6117083;23;6791;-75
2022/03/27 02:57:38;;;;;;;;;;;;;;;11.75;53.71;101970.19;6138444;23;7014;-75
2022/03/27 03:00:08;;;;;;;;;;;;;;;11.75;53.97;101972.75;6113933;23;6787;-75
2022/03/27 03:02:35;;;;;;;;;;;;;;;11.74;53.77;101970.09;6114557;23;6853;-75
2022/03/27 03:05:02;;;;;;;;;;;;;;;11.71;53.35;101970.78;6113339;23;7014;-75
2022/03/27 03:07:28;;;;;;;;;;;;;;;11.67;53.69;101971.34;6089068;23;6772;-75
2022/03/27 03:09:55;;;;;;;;;;;;;;;11.62;53.22;101976.16;6111459;23;6783;-75
2022/03/27 03:12:21;;;;;;;;;;;;;;;11.57;53.84;101972.41;6110595;23;6955;-75
2022/03/27 03:14:47;;;;;;;;;;;;;;;11.55;54.13;101976.53;6112306;23;6814;-75
2022/03/27 03:17:13;;;;;;;;;;;;;;;11.53;54.25;101973.84;6112239;23;6857;-75
2022/03/27 03:19:40;;;;;;;;;;;;;;;11.51;54.65;101975.44;6088914;23;7284;-75
2022/03/27 03:22:07;;;;;;;;;;;;;;;11.48;54.96;101972.63;6111591;23;6775;-75
2022/03/27 03:24:34;;;;;;;;;;;;;;;11.47;54.96;101975.97;6137706;23;8799;-75
2022/03/27 03:27:00;;;;;;;;;;;;;;;11.46;54.64;101968.19;6086656;23;7224;-75
2022/03/27 03:29:26;;;;;;;;;;;;;;;11.44;54.55;101975.78;6113079;23;7003;-75
2022/03/27 03:31:51;;;;;;;;;;;;;;;11.44;54.89;101972.31;6111760;23;6922;-75
2022/03/27 03:34:17;;;;;;;;;;;;;;;11.44;55.01;101972.31;6112887;23;6831;-76
2022/03/27 03:36:44;;;;;;;;;;;;;;;11.44;55.34;101969.75;6112367;23;6893;-76
2022/03/27 03:39:10;;;;;;;;;;;;;;;11.43;55.54;101963.72;6110813;23;6942;-76
2022/03/27 03:41:36;;;;;;;;;;;;;;;11.44;55.48;101965.50;6112525;23;7860;-76
2022/03/27 03:44:02;;;;;;;;;;;;;;;11.46;55.24;101968.19;6111597;23;6805;-76
2022/03/27 03:46:28;;;;;;;;;;;;;;;11.45;55.40;101969.00;6112909;23;6778;-76
2022/03/27 03:48:54;;;;;;;;;;;;;;;11.43;55.41;101958.59;6115161;23;7065;-76
2022/03/27 03:51:19;;;;;;;;;;;;;;;11.42;55.87;101961.03;6087936;23;6897;-76
2022/03/27 03:53:45;;;;;;;;;;;;;;;11.41;55.23;101967.88;6112010;23;6990;-76
2022/03/27 03:56:11;;;;;;;;;;;;;;;11.38;55.82;101962.50;6113000;23;6878;-75
2022/03/27 03:58:37;;;;;;;;;;;;;;;11.35;54.88;101954.59;6087720;23;6971;-76
2022/03/27 04:01:03;;;;;;;;;;;;;;;11.29;54.82;101960.19;6136120;23;6878;-76
2022/03/27 04:03:30;;;;;;;;;;;;;;;11.22;54.98;101964.03;6112873;23;7358;-76
2022/03/27 04:05:56;;;;;;;;;;;;;;;11.13;55.46;101953.09;6087774;23;6783;-76
2022/03/27 04:08:22;;;;;;;;;;;;;;;11.07;54.81;101968.06;6111690;23;6866;-76
2022/03/27 04:10:48;;;;;;;;;;;;;;;11.00;55.03;101959.03;6112817;23;7138;-76
2022/03/27 04:13:14;;;;;;;;;;;;;;;10.93;54.80;101965.41;6111485;23;6858;-76
2022/03/27 04:15:40;;;;;;;;;;;;;;;10.88;54.71;101965.88;6087144;23;6930;-76
2022/03/27 04:18:06;;;;;;;;;;;;;;;10.81;55.20;101962.84;6087671;23;8232;-76
2022/03/27 04:20:34;;;;;;;;;;;;;;;10.79;54.87;101961.84;6111947;23;6791;-76
2022/03/27 04:23:01;;;;;;;;;;;;;;;10.76;55.29;101965.88;6111561;23;6942;-76
2022/03/27 04:25:27;;;;;;;;;;;;;;;10.72;54.95;101959.63;6111749;23;6787;-76
2022/03/27 04:27:53;;;;;;;;;;;;;;;10.69;55.51;101970.53;6111538;23;6782;-76
2022/03/27 04:30:20;;;;;;;;;;;;;;;10.68;56.05;101967.88;6111766;23;6798;-76
2022/03/27 04:32:47;;;;;;;;;;;;;;;10.66;55.96;101967.75;6108511;23;6968;-76
2022/03/27 04:35:13;;;;;;;;;;;;;;;10.64;55.67;101966.75;6085173;23;6994;-76
2022/03/27 04:37:41;;;;;;;;;;;;;;;10.64;55.98;101970.97;6110932;23;6948;-76
2022/03/27 04:40:09;;;;;;;;;;;;;;;10.64;55.54;101969.31;6111604;23;6787;-75
2022/03/27 04:42:35;;;;;;;;;;;;;;;10.62;55.79;101970.91;6081769;23;7031;-75
2022/03/27 04:45:00;;;;;;;;;;;;;;;10.63;56.19;101970.13;6111767;23;6954;-75
2022/03/27 04:47:26;;;;;;;;;;;;;;;10.66;56.56;101977.09;6110001;23;6925;-75
2022/03/27 04:49:52;;;;;;;;;;;;;;;10.65;56.40;101977.91;6111161;23;6990;-75
2022/03/27 04:52:18;;;;;;;;;;;;;;;10.65;56.96;101983.03;6085484;23;7078;-75
2022/03/27 04:54:44;;;;;;;;;;;;;;;10.64;56.45;101983.81;6110218;23;6783;-75
2022/03/27 04:57:09;;;;;;;;;;;;;;;10.63;56.49;101982.94;6110952;23;7047;-75
2022/03/27 04:59:35;;;;;;;;;;;;;;;10.61;56.49;101981.03;6114333;23;6826;-75
2022/03/27 05:02:01;;;;;;;;;;;;;;;10.56;56.73;101975.56;6107718;23;7018;-75
2022/03/27 05:04:27;;;;;;;;;;;;;;;10.51;55.99;101985.47;6085518;23;8598;-75
2022/03/27 05:06:54;;;;;;;;;;;;;;;10.46;56.29;101988.50;6113628;23;6887;-75
2022/03/27 05:09:20;;;;;;;;;;;;;;;10.39;56.27;101990.56;6115307;23;6937;-75
2022/03/27 05:11:49;;;;;;;;;;;;;;;10.34;56.19;101988.44;6112156;23;7172;-75
2022/03/27 05:14:15;;;;;;;;;;;;;;;10.30;56.14;101989.88;6115886;23;6926;-75
2022/03/27 05:16:41;;;;;;;;;;;;;;;10.25;55.79;101988.66;6113647;23;6937;-75
2022/03/27 05:19:06;;;;;;;;;;;;;;;10.23;55.59;101993.66;6112809;23;6771;-76
2022/03/27 05:21:34;;;;;;;;;;;;;;;10.23;56.60;101996.22;6088309;23;6853;-76
2022/03/27 05:24:01;;;;;;;;;;;;;;;10.22;56.74;101997.00;6113343;23;6870;-76
2022/03/27 05:26:28;;;;;;;;;;;;;;;10.22;57.01;102001.22;6113799;23;7148;-76
2022/03/27 05:28:54;;;;;;;;;;;;;;;10.28;57.73;102004.25;6113216;23;6873;-76
2022/03/27 05:31:21;;;;;;;;;;;;;;;10.36;57.21;102007.38;6112358;23;6849;-76
2022/03/27 05:33:47;;;;;;;;;;;;;;;10.47;57.72;102003.09;6114897;23;6791;-76
2022/03/27 05:36:13;;;;;;;;;;;;;;;10.61;57.48;102006.66;6114189;23;6775;-76
2022/03/27 05:38:41;;;;;;;;;;;;;;;10.73;57.98;101999.88;6111687;23;6870;-76
2022/03/27 05:41:07;;;;;;;;;;;;;;;10.88;58.17;102007.78;6111360;23;7257;-76
2022/03/27 05:43:34;;;;;;;;;;;;;;;11.00;58.32;102006.88;6106586;23;7107;-75
2022/03/27 05:46:00;;;;;;;;;;;;;;;11.12;58.78;102007.78;6111736;23;6787;-76
2022/03/27 05:48:26;;;;;;;;;;;;;;;11.25;58.54;102018.13;6089656;23;7828;-75
2022/03/27 05:50:52;;;;;;;;;;;;;;;11.36;58.12;102020.56;6111916;23;7117;-75
2022/03/27 05:53:18;;;;;;;;;;;;;;;11.47;58.28;102022.19;6112334;23;7319;-75
2022/03/27 05:55:43;;;;;;;;;;;;;;;11.58;58.62;102027.19;6115430;23;7071;-76
2022/03/27 05:58:09;;;;;;;;;;;;;;;11.68;58.45;102024.47;6114847;23;6985;-76
2022/03/27 06:00:35;;;;;;;;;;;;;;;11.75;58.17;102025.81;6088183;23;6791;-76
2022/03/27 06:03:01;;;;;;;;;;;;;;;11.80;58.20;102027.00;6136918;23;6927;-76
2022/03/27 06:05:27;;;;;;;;;;;;;;;11.80;57.90;102035.63;6113056;23;7971;-76
2022/03/27 06:07:58;;;;;;;;;;;;;;;11.79;58.00;102031.28;6086408;23;7099;-76
2022/03/27 06:10:33;;;;;;;;;;;;;;;11.81;57.95;102034.84;6108014;23;6798;-76
2022/03/27 06:13:03;;;;;;;;;;;;;;;11.85;58.35;102045.31;6105843;23;6929;-76
2022/03/27 06:15:31;;;;;;;;;;;;;;;11.87;58.33;102044.66;6112735;23;7270;-76
2022/03/27 06:17:58;;;;;;;;;;;;;;;11.91;58.26;102048.31;6087649;23;7169;-76
2022/03/27 06:20:27;;;;;;;;;;;;;;;11.97;58.37;102058.13;6111039;23;7118;-76
2022/03/27 06:22:54;;;;;;;;;;;;;;;11.99;58.26;102047.19;6109519;23;6866;-76
2022/03/27 06:25:24;;;;;;;;;;;;;;;12.01;58.03;102054.97;6085757;23;6966;-76
2022/03/27 06:27:49;;;;;;;;;;;;;;;12.01;58.13;102054.97;6086201;23;6859;-76
2022/03/27 06:30:21;;;;;;;;;;;;;;;12.00;58.52;102048.97;6109552;23;7191;-76
2022/03/27 06:32:48;;;;;;;;;;;;;;;12.00;57.83;102050.63;6107917;23;7153;-76
2022/03/27 06:35:16;;;;;;;;;;;;;;;12.00;58.06;102051.53;6107767;23;7062;-77
2022/03/27 06:37:42;;;;;;;;;;;;;;;12.01;58.15;102053.31;6112863;23;6782;-75
2022/03/27 06:40:12;;;;;;;;;;;;;;;12.03;58.07;102056.03;6134804;23;6959;-76
2022/03/27 06:42:41;;;;;;;;;;;;;;;12.04;58.45;102053.53;6084785;23;7183;-76
2022/03/27 06:45:07;;;;;;;;;;;;;;;12.06;58.56;102056.22;6109092;23;7045;-76
2022/03/27 06:47:34;;;;;;;;;;;;;;;12.10;58.10;102058.19;6106378;23;8449;-76
2022/03/27 06:50:02;;;;;;;;;;;;;;;12.13;58.50;102048.16;6105689;23;6778;-76
2022/03/27 06:52:29;;;;;;;;;;;;;;;12.17;58.70;102046.69;6081535;23;6930;-76
2022/03/27 06:54:55;;;;;;;;;;;;;;;12.22;58.97;102047.88;6102555;23;7112;-76
2022/03/27 06:57:21;;;;;;;;;;;;;;;12.27;58.76;102050.75;6108498;23;6926;-76
2022/03/27 07:05:17;;;;;;;;;;;;;;;12.36;58.86;102052.28;6108210;23;6787;-75
2022/03/27 07:07:43;;;;;;;;;;;;;;;12.39;58.48;102051.56;6109643;23;6774;-75
2022/03/27 07:10:11;;;;;;;;;;;;;;;12.42;58.70;102056.03;6108656;23;6991;-76
2022/03/27 07:12:40;;;;;;;;;;;;;;;12.43;58.90;102051.00;6105005;23;7219;-76
2022/03/27 07:15:07;;;;;;;;;;;;;;;12.47;58.84;102047.84;6081983;23;6787;-76
2022/03/27 07:17:41;;;;;;;;;;;;;;;12.54;58.69;102054.28;6108493;23;8232;-76
2022/03/27 07:20:08;;;;;;;;;;;;;;;12.58;59.22;102047.66;6111116;23;6782;-76
2022/03/27 07:22:33;;;;;;;;;;;;;;;12.67;59.33;102047.38;6107144;23;6786;-76
2022/03/27 07:24:59;;;;;;;;;;;;;;;12.73;59.68;102047.78;6108866;23;6964;-76
2022/03/27 07:27:25;;;;;;;;;;;;;;;12.76;58.80;102051.44;6109693;23;7883;-77
2022/03/27 07:29:50;;;;;;;;;;;;;;;12.78;58.93;102048.97;6108552;23;6889;-76
2022/03/27 07:32:16;;;;;;;;;;;;;;;12.80;58.88;102043.94;6106035;23;7015;-76
2022/03/27 07:34:42;;;;;;;;;;;;;;;12.82;58.83;102045.78;6111541;23;6779;-76
2022/03/27 07:37:08;;;;;;;;;;;;;;;12.84;59.07;102051.94;6136138;23;6908;-76
2022/03/27 07:39:35;;;;;;;;;;;;;;;12.86;59.44;102050.38;6085846;23;8134;-76
2022/03/27 07:42:00;;;;;;;;;;;;;;;12.90;58.78;102054.91;6105840;23;7002;-77
2022/03/27 07:44:26;;;;;;;;;;;;;;;12.94;59.23;102049.94;6133663;23;7800;-76
2022/03/27 07:46:56;;;;;;;;;;;;;;;12.99;59.01;102059.78;6109303;23;6838;-76
2022/03/27 07:49:23;;;;;;;;;;;;;;;13.04;59.75;102060.09;6110739;23;6940;-76
2022/03/27 07:51:49;;;;;;;;;;;;;;;13.08;58.86;102062.03;6110181;23;7058;-76
2022/03/27 07:54:15;;;;;;;;;;;;;;;13.13;59.38;102064.91;6107914;23;6771;-76
2022/03/27 07:56:40;;;;;;;;;;;;;;;13.16;58.95;102060.84;6082950;23;7392;-76
2022/03/27 07:59:06;;;;;;;;;;;;;;;13.19;58.88;102061.03;6112178;23;7458;-76
2022/03/27 08:01:32;;;;;;;;;;;;;;;13.17;58.75;102057.50;6085989;23;6978;-76
2022/03/27 08:03:58;;;;;;;;;;;;;;;13.16;58.56;102058.28;6085025;23;6913;-76
2022/03/27 08:06:24;;;;;;;;;;;;;;;13.18;59.44;102056.69;6108128;23;6960;-76
2022/03/27 08:08:50;;;;;;;;;;;;;;;13.22;59.35;102059.44;6110205;23;7827;-76
2022/03/27 08:11:16;;;;;;;;;;;;;;;13.26;58.95;102058.88;6109766;23;6771;-76
2022/03/27 08:13:43;;;;;;;;;;;;;;;13.32;59.40;102056.66;6109726;23;6915;-76
2022/03/27 08:16:09;;;;;;;;;;;;;;;13.34;59.37;102057.69;6111163;23;6779;-77
2022/03/27 08:18:35;;;;;;;;;;;;;;;13.43;59.95;102059.94;6111931;23;6958;-77
2022/03/27 08:21:00;;;;;;;;;;;;;;;13.49;58.87;102060.34;6133416;23;6925;-76
2022/03/27 08:23:26;;;;;;;;;;;;;;;13.54;59.00;102053.78;6109895;23;6775;-76
2022/03/27 08:28:36;;;;;;;;;;;;;;;13.61;58.87;102048.22;6107813;23;7285;-77
2022/03/27 08:31:02;;;;;;;;;;;;;;;13.67;59.59;102058.03;6107693;23;6775;-76
2022/03/27 08:33:27;;;;;;;;;;;;;;;13.77;59.50;102050.88;6111669;23;7119;-76
2022/03/27 08:35:54;;;;;;;;;;;;;;;13.83;58.45;102051.25;6134775;23;6826;-76
2022/03/27 08:38:20;;;;;;;;;;;;;;;13.87;58.65;102061.84;6109405;23;7304;-77
2022/03/27 08:40:47;;;;;;;;;;;;;;;13.88;58.65;102057.56;6085056;23;7043;-76
2022/03/27 08:43:15;;;;;;;;;;;;;;;13.88;58.58;102054.97;6111335;23;7037;-76
2022/03/27 08:45:43;;;;;;;;;;;;;;;13.92;58.90;102056.06;6111006;23;6929;-76
2022/03/27 08:48:11;;;;;;;;;;;;;;;13.95;59.57;102057.13;6113477;23;6787;-76
2022/03/27 08:50:58;;;;;;;;;;;;;;;13.98;59.38;102052.16;6088210;23;6948;-76
2022/03/27 08:53:50;;;;;;;;;;;;;;;14.05;59.69;102049.97;6111855;23;6787;-76
2022/03/27 08:56:18;;;;;;;;;;;;;;;14.13;59.71;102046.16;6085526;23;7174;-76
2022/03/27 08:58:44;;;;;;;;;;;;;;;14.23;58.91;102053.66;6111013;23;6826;-76
2022/03/27 09:01:11;;;;;;;;;;;;;;;14.34;59.37;102056.88;6109343;23;6933;-76
2022/03/27 09:03:37;;;;;;;;;;;;;;;14.41;59.48;102058.97;6112086;23;6817;-77
2022/03/27 09:06:08;;;;;;;;;;;;;;;14.47;59.02;102061.03;6116225;23;6951;-76
2022/03/27 09:08:34;;;;;;;;;;;;;;;14.48;58.43;102055.06;6089929;23;8201;-76
2022/03/27 09:11:03;;;;;;;;;;;;;;;14.54;58.44;102064.88;6110594;23;7189;-76
2022/03/27 09:13:31;;;;;;;;;;;;;;;14.60;58.83;102060.06;6088367;23;7051;-76
2022/03/27 09:16:04;;;;;;;;;;;;;;;14.68;58.26;102063.09;6115408;23;8061;-76
2022/03/27 09:18:42;;;;;;;;;;;;;;;14.81;59.29;102060.44;6113735;23;6871;-76
2022/03/27 09:21:08;;;;;;;;;;;;;;;14.94;59.13;102064.63;6113446;23;6847;-76
2022/03/27 09:23:35;;;;;;;;;;;;;;;15.08;58.59;102067.09;6113483;23;6946;-76
2022/03/27 09:26:05;;;;;;;;;;;;;;;15.19;58.76;102062.53;6113853;23;6965;-77
2022/03/27 09:28:40;;;;;;;;;;;;;;;15.29;58.14;102062.22;6111928;23;6791;-76
2022/03/27 09:31:24;;;;;;;;;;;;;;;15.34;58.06;102062.50;6113652;23;7073;-77
2022/03/27 09:34:03;;;;;;;;;;;;;;;15.38;57.04;102062.75;6088368;23;6763;-77
2022/03/27 09:36:39;;;;;;;;;;;;;;;15.43;57.34;102059.50;6112212;23;6782;-77
2022/03/27 09:39:20;;;;;;;;;;;;;;;15.47;57.65;102059.75;6112726;23;6779;-76
2022/03/27 09:41:53;;;;;;;;;;;;;;;15.56;57.40;102056.81;6113287;23;6786;-76
2022/03/27 09:44:34;;;;;;;;;;;;;;;15.62;57.10;102054.53;6113766;23;6779;-76
2022/03/27 09:47:02;;;;;;;;;;;;;;;15.62;57.21;102059.69;6113350;23;6779;-76
2022/03/27 09:49:31;;;;;;;;;;;;;;;15.61;56.74;102062.22;6089878;23;7595;-77
2022/03/27 09:52:08;;;;;;;;;;;;;;;15.58;56.80;102062.94;6112673;23;6955;-77
2022/03/27 09:55:07;;;;;;;;;;;;;;;15.54;56.80;102054.13;6114118;23;6944;-77
2022/03/27 09:57:42;;;;;;;;;;;;;;;15.53;56.90;102046.28;6112681;23;6990;-77
2022/03/27 10:00:11;;;;;;;;;;;;;;;15.52;56.72;102047.09;6113486;23;6981;-77
2022/03/27 10:02:38;;;;;;;;;;;;;;;15.54;56.49;102045.47;6111662;23;6976;-77
2022/03/27 10:05:19;;;;;;;;;;;;;;;15.58;57.02;102043.94;6111176;23;8463;-77
2022/03/27 10:07:50;;;;;;;;;;;;;;;15.61;56.69;102046.72;6113500;23;6951;-77
2022/03/27 10:10:19;;;;;;;;;;;;;;;15.67;56.54;102042.75;6137933;23;7968;-76
2022/03/27 10:12:54;;;;;;;;;;;;;;;15.70;56.34;102039.44;6113655;23;8013;-76
2022/03/27 10:15:24;;;;;;;;;;;;;;;15.75;56.49;102037.97;6113346;23;6783;-76
2022/03/27 10:18:20;;;;;;;;;;;;;;;15.80;55.89;102035.63;6114115;23;6866;-76
2022/03/27 10:20:57;;;;;;;;;;;;;;;15.84;56.22;102029.84;6109788;23;6866;-76
2022/03/27 10:23:26;;;;;;;;;;;;;;;15.92;56.26;102027.69;6137544;23;7221;-76
2022/03/27 10:26:03;;;;;;;;;;;;;;;15.99;56.52;102028.88;6113697;23;6782;-76
2022/03/27 10:28:30;;;;;;;;;;;;;;;16.01;55.40;102022.09;6088066;23;6791;-76
2022/03/27 10:30:56;;;;;;;;;;;;;;;16.02;55.71;102029.03;6111638;23;7063;-76
2022/03/27 10:33:28;;;;;;;;;;;;;;;15.98;55.33;102029.69;6089220;23;7087;-76
2022/03/27 10:36:08;;;;;;;;;;;;;;;15.93;55.31;102027.78;6111150;23;6871;-76
2022/03/27 10:39:21;;;;;;;;;;;;;;;15.94;55.82;102026.06;6086815;23;7132;-77
2022/03/27 10:42:27;;;;;;;;;;;;;;;15.98;55.61;102025.38;6115878;23;7123;-77
2022/03/27 10:45:06;;;;;;;;;;;;;;;16.07;55.75;102020.69;6109970;23;7185;-77
2022/03/27 10:47:32;;;;;;;;;;;;;;;16.25;55.87;102025.03;6088808;23;6783;-77
2022/03/27 10:50:00;;;;;;;;;;;;;;;16.42;55.67;102018.13;6111408;23;6938;-77
2022/03/27 10:52:56;;;;;;;;;;;;;;;16.59;55.00;102018.97;6110926;23;6807;-77
2022/03/27 10:55:34;;;;;;;;;;;;;;;16.77;55.13;102018.97;6118385;23;7019;-77
2022/03/27 10:58:00;;;;;;;;;;;;;;;16.94;54.59;102011.13;6113823;23;7071;-77
2022/03/27 11:00:40;;;;;;;;;;;;;;;17.10;54.14;102001.53;6111312;23;6927;-77
2022/03/27 11:03:06;;;;;;;;;;;;;;;17.21;53.87;101998.59;6109446;23;6787;-77
2022/03/27 11:05:35;;;;;;;;;;;;;;;17.33;53.73;102000.88;6111786;23;6945;-77
2022/03/27 11:08:19;;;;;;;;;;;;;;;17.43;53.50;102001.28;6087256;23;7052;-76
2022/03/27 11:10:55;;;;;;;;;;;;;;;17.48;53.51;101992.91;6111247;23;6794;-77
2022/03/27 11:13:26;;;;;;;;;;;;;;;17.59;53.11;101995.97;6109530;23;6779;-76
2022/03/27 11:16:14;;;;;;;;;;;;;;;17.69;52.62;101988.63;6109911;23;6973;-76
2022/03/27 11:18:47;;;;;;;;;;;;;;;17.74;52.74;101990.59;6111840;23;6944;-77
2022/03/27 11:21:28;;;;;;;;;;;;;;;17.72;52.04;101987.06;6110837;23;6970;-77
2022/03/27 11:24:02;;;;;;;;;;;;;;;17.63;52.38;101978.88;6112148;23;8476;-77
2022/03/27 11:26:29;;;;;;;;;;;;;;;17.61;52.73;101980.47;6113680;23;6988;-76
2022/03/27 11:29:21;;;;;;;;;;;;;;;17.69;52.39;101983.44;6113850;23;6783;-76
2022/03/27 11:32:08;;;;;;;;;;;;;;;17.83;52.06;101976.25;6107341;23;6787;-76
2022/03/27 11:34:38;;;;;;;;;;;;;;;17.89;51.49;101977.41;6113142;23;6779;-76
2022/03/27 11:37:23;;;;;;;;;;;;;;;17.94;51.52;101971.50;6135600;23;6779;-75
2022/03/27 11:39:51;;;;;;;;;;;;;;;17.99;51.85;101973.47;6087900;23;7230;-75
2022/03/27 11:42:33;;;;;;;;;;;;;;;18.12;51.81;101959.34;6086895;23;8301;-76
2022/03/27 11:45:21;;;;;;;;;;;;;;;18.26;51.94;101965.13;6113598;23;8440;-77
2022/03/27 11:47:55;;;;;;;;;;;;;;;18.39;51.74;101969.09;6089021;23;7021;-76
2022/03/27 11:50:34;;;;;;;;;;;;;;;18.46;51.42;101960.75;6111295;23;7175;-77
2022/03/27 11:53:02;;;;;;;;;;;;;;;18.52;51.25;101959.22;6110639;23;6974;-76
2022/03/27 11:55:34;;;;;;;;;;;;;;;18.53;50.80;101956.69;6087813;23;6973;-76
2022/03/27 11:58:03;;;;;;;;;;;;;;;18.50;50.44;101955.66;6111429;23;6814;-76
2022/03/27 12:00:43;;;;;;;;;;;;;;;18.48;50.77;101949.53;6112691;23;6948;-76
2022/03/27 12:03:19;;;;;;;;;;;;;;;18.57;50.96;101953.38;6112340;23;6850;-76
2022/03/27 12:05:45;;;;;;;;;;;;;;;18.73;50.63;101953.97;6111841;23;6783;-76
2022/03/27 12:08:17;;;;;;;;;;;;;;;18.89;50.39;101952.88;6136483;23;6794;-76
2022/03/27 12:10:47;;;;;;;;;;;;;;;19.05;49.79;101950.91;6135290;23;6886;-76
2022/03/27 12:13:14;;;;;;;;;;;;;;;19.12;49.76;101939.88;6112068;23;6791;-76
2022/03/27 12:15:49;;;;;;;;;;;;;;;19.35;50.03;101942.47;6111475;23;6972;-76
2022/03/27 12:18:36;;;;;;;;;;;;;;;19.84;49.05;101943.28;6114581;23;6956;-76
2022/03/27 12:21:12;;;;;;;;;;;;;;;20.12;48.02;101937.34;6111551;23;6960;-76
2022/03/27 12:23:56;;;;;;;;;;;;;;;20.43;47.82;101932.25;6112962;23;6791;-76
2022/03/27 12:29:43;;;;;;;;;;;;;;;21.83;45.80;101906.69;6138308;23;6974;-77
2022/03/27 12:32:21;;;;;;;;;;;;;;;22.32;44.80;101900.03;6116078;23;6783;-75
2022/03/27 12:35:01;;;;;;;;;;;;;;;22.69;43.96;101902.63;6112916;23;6948;-75
2022/03/27 12:37:31;;;;;;;;;;;;;;;22.77;43.40;101896.69;6112735;23;6790;-76
2022/03/27 12:39:56;;;;;;;;;;;;;;;22.49;43.67;101902.16;6112919;23;7149;-76
2022/03/27 12:42:39;;;;;;;;;;;;;;;22.12;43.78;101903.91;6104836;23;7018;-77
2022/03/27 12:45:12;;;;;;;;;;;;;;;21.71;44.13;101900.28;6084985;23;6787;-76
2022/03/27 12:47:40;;;;;;;;;;;;;;;21.37;44.46;101884.59;6111561;23;7038;-76
2022/03/27 12:50:10;;;;;;;;;;;;;;;21.11;44.88;101890.84;6112029;23;7003;-77
2022/03/27 12:52:55;;;;;;;;;;;;;;;20.83;44.99;101880.50;6108712;23;6786;-77
2022/03/27 12:55:25;;;;;;;;;;;;;;;20.65;45.46;101884.28;6109146;23;6874;-77
2022/03/27 12:58:00;;;;;;;;;;;;;;;20.60;46.29;101877.19;6109638;23;6957;-76
2022/03/27 13:00:30;;;;;;;;;;;;;;;20.71;46.30;101874.91;6106905;23;7715;-77
2022/03/27 13:03:18;;;;;;;;;;;;;;;21.07;46.03;101869.88;6104037;23;6990;-76
2022/03/27 13:05:53;;;;;;;;;;;;;;;21.58;45.16;101857.31;6107935;23;6990;-76
2022/03/27 13:08:31;;;;;;;;;;;;;;;22.13;44.49;101858.69;6110898;23;6787;-77
2022/03/27 13:10:57;;;;;;;;;;;;;;;22.78;43.67;101849.66;6108459;23;6986;-77
2022/03/27 13:13:36;;;;;;;;;;;;;;;23.47;42.75;101850.94;6110937;23;7001;-76
2022/03/27 13:16:32;;;;;;;;;;;;;;;23.95;41.88;101852.63;6109660;23;6953;-76